createdAt,value
2023-04-15T00:00:45.624Z,12.98
2023-04-15T00:01:55.383Z,12.95
2023-04-15T00:03:03.616Z,12.98
2023-04-15T00:04:23.509Z,12.98
2023-04-15T00:05:29.907Z,12.98
2023-04-15T00:06:47.519Z,13.02
2023-04-15T00:08:04.303Z,13.05
2023-04-15T00:09:14.309Z,13.06
2023-04-15T00:10:18.362Z,13.08
2023-04-15T00:11:24.259Z,13.09
2023-04-15T00:12:29.021Z,13.12
2023-04-15T00:13:44.106Z,13.08
2023-04-15T00:14:49.289Z,13.11
2023-04-15T00:15:54.213Z,13.10
2023-04-15T00:16:59.311Z,13.09
2023-04-15T00:18:19.777Z,13.09
2023-04-15T00:19:26.439Z,13.10
2023-04-15T00:20:31.466Z,13.12
2023-04-15T00:21:38.285Z,13.10
2023-04-15T00:22:46.760Z,13.08
2023-04-15T00:23:54.318Z,13.08
2023-04-15T00:25:00.317Z,13.10
2023-04-15T00:26:14.064Z,13.08
2023-04-15T00:27:21.892Z,13.09
2023-04-15T00:28:32.382Z,13.07
2023-04-15T00:29:40.228Z,13.06
2023-04-15T00:30:50.558Z,13.08
2023-04-15T00:31:57.422Z,13.09
2023-04-15T00:33:07.477Z,13.07
2023-04-15T00:34:11.691Z,13.03
2023-04-15T00:35:21.073Z,12.98
2023-04-15T00:36:33.195Z,12.97
2023-04-15T00:37:39.916Z,12.98
2023-04-15T00:38:50.889Z,12.93
2023-04-15T00:40:12.880Z,12.96
2023-04-15T00:41:19.696Z,12.94
2023-04-15T00:42:36.834Z,12.94
2023-04-15T00:43:49.697Z,13.00
2023-04-15T00:44:59.496Z,13.00
2023-04-15T00:46:16.298Z,12.93
2023-04-15T00:47:34.867Z,12.94
2023-04-15T00:48:49.977Z,12.98
2023-04-15T00:49:56.693Z,12.97
2023-04-15T00:51:04.462Z,13.01
2023-04-15T00:52:12.152Z,13.01
2023-04-15T00:53:16.060Z,12.99
2023-04-15T00:54:19.909Z,12.96
2023-04-15T00:55:23.762Z,12.97
2023-04-15T00:56:29.837Z,13.01
2023-04-15T00:57:34.324Z,13.00
2023-04-15T00:58:38.619Z,13.01
2023-04-15T00:59:42.886Z,13.01
2023-04-15T01:00:49.643Z,13.03
2023-04-15T01:01:54.212Z,13.02
2023-04-15T01:02:57.909Z,13.02
2023-04-15T01:04:14.370Z,13.03
2023-04-15T01:05:31.080Z,13.03
2023-04-15T01:06:41.415Z,13.01
2023-04-15T01:07:45.917Z,13.02
2023-04-15T01:09:00.414Z,13.03
2023-04-15T01:10:24.045Z,13.01
2023-04-15T01:11:41.157Z,13.00
2023-04-15T01:12:51.507Z,12.97
2023-04-15T01:14:01.630Z,12.94
2023-04-15T01:15:15.324Z,12.94
2023-04-15T01:16:33.647Z,12.93
2023-04-15T01:17:44.868Z,12.88
2023-04-15T01:20:23.717Z,12.84
2023-04-15T01:21:31.530Z,12.81
2023-04-15T01:22:35.991Z,12.83
2023-04-15T01:23:54.259Z,12.82
2023-04-15T01:25:35.324Z,12.79
2023-04-15T01:26:42.410Z,12.76
2023-04-15T01:27:51.832Z,12.77
2023-04-15T01:28:59.355Z,12.73
2023-04-15T01:30:13.169Z,12.75
2023-04-15T01:31:17.549Z,12.72
2023-04-15T01:32:27.630Z,12.69
2023-04-15T01:33:35.363Z,12.65
2023-04-15T01:34:39.631Z,12.59
2023-04-15T01:35:46.228Z,12.61
2023-04-15T01:36:53.694Z,12.64
2023-04-15T01:38:11.085Z,12.61
2023-04-15T01:39:23.129Z,12.59
2023-04-15T01:40:30.409Z,12.59
2023-04-15T01:41:35.885Z,12.60
2023-04-15T01:42:43.609Z,12.60
2023-04-15T01:43:53.063Z,12.59
2023-04-15T01:45:10.484Z,12.57
2023-04-15T01:46:17.524Z,12.53
2023-04-15T01:47:22.874Z,12.54
2023-04-15T01:48:30.867Z,12.53
2023-04-15T01:49:38.416Z,12.48
2023-04-15T01:50:48.287Z,12.50
2023-04-15T01:51:52.960Z,12.50
2023-04-15T01:53:10.157Z,12.47
2023-04-15T01:54:15.174Z,12.48
2023-04-15T01:55:47.152Z,12.48
2023-04-15T01:56:56.532Z,12.47
2023-04-15T01:59:32.463Z,12.38
2023-04-15T02:00:38.148Z,12.41
2023-04-15T02:01:42.347Z,12.40
2023-04-15T02:02:52.310Z,12.46
2023-04-15T02:03:58.161Z,12.42
2023-04-15T02:05:05.125Z,12.39
2023-04-15T02:06:17.538Z,12.35
2023-04-15T02:07:31.972Z,12.34
2023-04-15T02:08:40.288Z,12.32
2023-04-15T02:09:51.329Z,12.29
2023-04-15T02:10:57.792Z,12.27
2023-04-15T02:12:05.294Z,12.21
2023-04-15T02:13:14.615Z,12.17
2023-04-15T02:14:25.392Z,12.19
2023-04-15T02:15:30.075Z,12.21
2023-04-15T02:16:35.121Z,12.21
2023-04-15T02:18:01.778Z,12.18
2023-04-15T02:19:17.875Z,12.14
2023-04-15T02:20:24.964Z,12.14
2023-04-15T02:21:35.440Z,12.14
2023-04-15T02:22:42.401Z,12.14
2023-04-15T02:23:48.440Z,12.15
2023-04-15T02:25:14.280Z,12.15
2023-04-15T02:26:19.134Z,12.14
2023-04-15T02:27:26.770Z,12.15
2023-04-15T02:28:43.467Z,12.14
2023-04-15T02:29:52.808Z,12.14
2023-04-15T02:31:10.505Z,12.13
2023-04-15T02:32:22.249Z,12.17
2023-04-15T02:33:30.170Z,12.15
2023-04-15T02:34:44.042Z,12.11
2023-04-15T02:35:51.118Z,12.13
2023-04-15T02:37:04.341Z,12.12
2023-04-15T02:38:21.656Z,12.14
2023-04-15T02:39:27.826Z,12.12
2023-04-15T02:40:34.729Z,12.11
2023-04-15T02:41:52.285Z,12.10
2023-04-15T02:43:02.303Z,12.06
2023-04-15T02:44:10.923Z,12.06
2023-04-15T02:45:25.199Z,12.03
2023-04-15T02:46:35.906Z,11.99
2023-04-15T02:47:44.441Z,11.93
2023-04-15T02:48:54.962Z,11.93
2023-04-15T02:50:19.596Z,11.96
2023-04-15T02:51:26.080Z,11.95
2023-04-15T02:52:33.391Z,11.96
2023-04-15T02:53:37.192Z,11.94
2023-04-15T02:54:41.210Z,11.93
2023-04-15T02:55:45.671Z,11.91
2023-04-15T02:56:50.561Z,11.87
2023-04-15T02:57:54.409Z,11.89
2023-04-15T02:58:58.826Z,11.91
2023-04-15T03:00:02.666Z,11.90
2023-04-15T03:01:11.023Z,11.90
2023-04-15T03:02:14.887Z,11.87
2023-04-15T03:03:18.834Z,11.89
2023-04-15T03:04:22.934Z,11.88
2023-04-15T03:05:38.808Z,11.87
2023-04-15T03:06:42.585Z,11.87
2023-04-15T03:07:48.179Z,11.87
2023-04-15T03:09:02.994Z,11.88
2023-04-15T03:10:15.663Z,11.84
2023-04-15T03:11:30.185Z,11.82
2023-04-15T03:12:35.423Z,11.80
2023-04-15T03:13:42.719Z,11.78
2023-04-15T03:14:54.404Z,11.77
2023-04-15T03:16:02.342Z,11.79
2023-04-15T03:17:14.164Z,11.71
2023-04-15T03:18:40.293Z,11.71
2023-04-15T03:20:19.814Z,11.71
2023-04-15T03:21:16.510Z,11.71
2023-04-15T03:22:22.510Z,11.68
2023-04-15T03:23:27.755Z,11.68
2023-04-15T03:24:39.938Z,11.69
2023-04-15T03:25:51.602Z,11.71
2023-04-15T03:27:04.058Z,11.72
2023-04-15T03:28:20.498Z,11.72
2023-04-15T03:29:30.894Z,11.68
2023-04-15T03:30:44.663Z,11.68
2023-04-15T03:31:52.669Z,11.66
2023-04-15T03:34:20.454Z,11.64
2023-04-15T03:35:39.215Z,11.66
2023-04-15T03:36:43.451Z,11.64
2023-04-15T03:38:08.646Z,11.63
2023-04-15T03:39:27.833Z,11.67
2023-04-15T03:40:38.782Z,11.65
2023-04-15T03:41:42.717Z,11.67
2023-04-15T03:42:50.694Z,11.68
2023-04-15T03:44:11.276Z,11.68
2023-04-15T03:45:29.316Z,11.69
2023-04-15T03:46:33.350Z,11.64
2023-04-15T03:47:41.135Z,11.60
2023-04-15T03:48:49.810Z,11.63
2023-04-15T03:49:58.350Z,11.60
2023-04-15T03:51:03.527Z,11.58
2023-04-15T03:52:41.762Z,11.58
2023-04-15T03:53:46.182Z,11.60
2023-04-15T03:54:50.403Z,11.65
2023-04-15T03:56:15.066Z,11.68
2023-04-15T03:57:23.687Z,11.67
2023-04-15T03:58:28.843Z,11.66
2023-04-15T03:59:35.085Z,11.64
2023-04-15T04:00:51.740Z,11.62
2023-04-15T04:02:03.778Z,11.66
2023-04-15T04:03:31.061Z,11.62
2023-04-15T04:04:47.126Z,11.65
2023-04-15T04:06:05.026Z,11.62
2023-04-15T04:07:18.782Z,11.57
2023-04-15T04:08:27.615Z,11.56
2023-04-15T04:09:33.786Z,11.61
2023-04-15T04:10:40.252Z,11.63
2023-04-15T04:11:50.190Z,11.65
2023-04-15T04:14:31.585Z,11.68
2023-04-15T04:15:44.252Z,11.64
2023-04-15T04:16:53.465Z,11.64
2023-04-15T04:18:07.558Z,11.66
2023-04-15T04:19:15.371Z,11.66
2023-04-15T04:20:27.212Z,11.67
2023-04-15T04:21:55.079Z,11.66
2023-04-15T04:23:10.050Z,11.70
2023-04-15T04:24:27.758Z,11.68
2023-04-15T04:25:52.306Z,11.72
2023-04-15T04:27:00.255Z,11.76
2023-04-15T04:28:10.013Z,11.73
2023-04-15T04:29:21.518Z,11.70
2023-04-15T04:30:34.043Z,11.67
2023-04-15T04:31:40.759Z,11.71
2023-04-15T04:32:45.238Z,11.67
2023-04-15T04:33:52.792Z,11.67
2023-04-15T04:35:15.042Z,11.59
2023-04-15T04:36:35.351Z,11.55
2023-04-15T04:37:54.207Z,11.57
2023-04-15T04:39:02.121Z,11.62
2023-04-15T04:40:22.440Z,11.64
2023-04-15T04:41:28.919Z,11.66
2023-04-15T04:42:39.781Z,11.62
2023-04-15T04:44:09.062Z,11.68
2023-04-15T04:45:37.707Z,11.74
2023-04-15T04:46:42.006Z,11.73
2023-04-15T04:47:50.183Z,11.74
2023-04-15T04:49:06.309Z,11.72
2023-04-15T04:50:24.552Z,11.71
2023-04-15T04:51:35.493Z,11.73
2023-04-15T04:52:39.760Z,11.81
2023-04-15T04:53:44.049Z,11.87
2023-04-15T04:54:47.715Z,11.85
2023-04-15T04:55:51.537Z,11.87
2023-04-15T04:56:55.181Z,11.92
2023-04-15T04:57:59.015Z,11.92
2023-04-15T04:59:03.035Z,11.93
2023-04-15T05:00:10.810Z,11.96
2023-04-15T05:01:14.751Z,11.98
2023-04-15T05:02:19.071Z,12.00
2023-04-15T05:03:23.118Z,12.02
2023-04-15T05:04:35.259Z,12.04
2023-04-15T05:05:46.034Z,12.00
2023-04-15T05:06:53.919Z,11.95
2023-04-15T05:08:02.036Z,11.85
2023-04-15T05:09:27.726Z,11.84
2023-04-15T05:10:32.775Z,11.85
2023-04-15T05:11:39.549Z,11.91
2023-04-15T05:12:57.485Z,12.00
2023-04-15T05:14:08.341Z,12.05
2023-04-15T05:15:19.225Z,12.10
2023-04-15T05:16:23.559Z,12.11
2023-04-15T05:17:29.381Z,12.12
2023-04-15T05:18:37.135Z,12.15
2023-04-15T05:19:46.222Z,12.22
2023-04-15T05:20:52.858Z,12.25
2023-04-15T05:22:01.721Z,12.28
2023-04-15T05:23:16.125Z,12.34
2023-04-15T05:24:44.863Z,12.42
2023-04-15T05:25:54.209Z,12.42
2023-04-15T05:27:09.266Z,12.49
2023-04-15T05:28:17.553Z,12.54
2023-04-15T05:29:43.627Z,12.73
2023-04-15T05:31:03.927Z,12.86
2023-04-15T05:32:14.196Z,13.08
2023-04-15T05:33:43.075Z,13.29
2023-04-15T05:36:21.707Z,13.88
2023-04-15T05:37:37.164Z,14.03
2023-04-15T05:38:51.400Z,14.13
2023-04-15T05:40:03.494Z,14.20
2023-04-15T05:41:20.527Z,14.27
2023-04-15T05:42:45.515Z,14.27
2023-04-15T05:43:52.616Z,14.46
2023-04-15T05:44:59.648Z,14.62
2023-04-15T05:46:09.070Z,14.79
2023-04-15T05:47:24.099Z,15.02
2023-04-15T05:48:30.232Z,15.18
2023-04-15T05:49:45.736Z,15.16
2023-04-15T05:51:08.799Z,15.22
2023-04-15T05:52:24.017Z,15.13
2023-04-15T05:53:37.674Z,15.13
2023-04-15T05:54:50.349Z,14.98
2023-04-15T05:56:38.346Z,15.09
2023-04-15T05:57:48.477Z,15.23
2023-04-15T05:58:54.515Z,15.21
2023-04-15T06:00:17.837Z,15.25
2023-04-15T06:01:29.130Z,15.41
2023-04-15T06:02:39.232Z,15.61
2023-04-15T06:03:54.634Z,15.99
2023-04-15T06:05:05.464Z,16.08
2023-04-15T06:06:36.641Z,16.04
2023-04-15T06:08:07.017Z,16.12
2023-04-15T06:09:29.685Z,16.21
2023-04-15T06:10:42.687Z,16.32
2023-04-15T06:11:54.707Z,16.58
2023-04-15T06:13:12.783Z,16.72
2023-04-15T06:14:19.336Z,16.85
2023-04-15T06:15:37.219Z,16.83
2023-04-15T06:16:41.298Z,16.82
2023-04-15T06:17:47.775Z,16.54
2023-04-15T06:19:14.030Z,16.47
2023-04-15T06:20:39.102Z,16.33
2023-04-15T06:21:58.759Z,16.23
2023-04-15T06:23:16.286Z,16.26
2023-04-15T06:24:24.011Z,16.17
2023-04-15T06:25:36.176Z,15.97
2023-04-15T06:26:44.396Z,16.03
2023-04-15T06:27:57.129Z,16.01
2023-04-15T06:29:04.218Z,15.91
2023-04-15T06:30:25.802Z,15.80
2023-04-15T06:31:40.032Z,15.75
2023-04-15T06:32:52.151Z,15.58
2023-04-15T06:34:04.070Z,15.67
2023-04-15T06:35:22.464Z,15.79
2023-04-15T06:36:28.175Z,15.73
2023-04-15T06:37:51.125Z,15.65
2023-04-15T06:39:09.764Z,15.59
2023-04-15T06:40:15.431Z,15.53
2023-04-15T06:41:38.021Z,15.32
2023-04-15T06:42:44.769Z,15.32
2023-04-15T06:43:58.013Z,15.31
2023-04-15T06:46:40.020Z,15.40
2023-04-15T06:47:46.326Z,15.38
2023-04-15T06:49:00.037Z,15.38
2023-04-15T06:50:13.811Z,15.31
2023-04-15T06:51:21.200Z,15.28
2023-04-15T06:52:33.510Z,15.27
2023-04-15T06:53:41.165Z,15.16
2023-04-15T06:54:47.055Z,15.07
2023-04-15T06:55:50.783Z,15.09
2023-04-15T06:56:54.649Z,14.96
2023-04-15T06:57:58.666Z,14.94
2023-04-15T06:59:02.498Z,14.96
2023-04-15T07:00:08.114Z,14.94
2023-04-15T07:01:14.560Z,14.92
2023-04-15T07:02:18.733Z,14.91
2023-04-15T07:03:22.604Z,14.90
2023-04-15T07:04:26.265Z,14.94
2023-04-15T07:05:37.218Z,14.99
2023-04-15T07:06:42.006Z,15.04
2023-04-15T07:07:48.665Z,15.04
2023-04-15T07:08:56.367Z,15.17
2023-04-15T07:10:12.141Z,15.32
2023-04-15T07:11:29.245Z,15.46
2023-04-15T07:12:36.290Z,15.54
2023-04-15T07:13:49.485Z,15.67
2023-04-15T07:15:06.896Z,15.93
2023-04-15T07:16:15.192Z,16.06
2023-04-15T07:17:18.824Z,16.13
2023-04-15T07:18:26.006Z,16.19
2023-04-15T07:19:36.097Z,16.24
2023-04-15T07:20:49.942Z,16.41
2023-04-15T07:22:18.274Z,16.36
2023-04-15T07:23:23.977Z,16.47
2023-04-15T07:26:09.690Z,16.64
2023-04-15T07:27:14.322Z,16.75
2023-04-15T07:28:35.601Z,16.67
2023-04-15T07:29:42.526Z,16.90
2023-04-15T07:30:53.689Z,16.88
2023-04-15T07:32:01.547Z,17.06
2023-04-15T07:33:23.739Z,17.15
2023-04-15T07:34:32.743Z,17.19
2023-04-15T07:35:53.904Z,17.24
2023-04-15T07:37:07.053Z,17.03
2023-04-15T07:38:20.648Z,16.95
2023-04-15T07:39:29.293Z,16.99
2023-04-15T07:42:14.948Z,17.21
2023-04-15T07:43:25.739Z,17.27
2023-04-15T07:44:40.703Z,17.33
2023-04-15T07:45:47.912Z,17.39
2023-04-15T07:47:20.070Z,17.47
2023-04-15T07:48:31.388Z,17.67
2023-04-15T07:49:52.787Z,18.17
2023-04-15T07:50:57.598Z,18.51
2023-04-15T07:52:22.715Z,18.90
2023-04-15T07:53:30.545Z,19.33
2023-04-15T07:54:38.942Z,19.56
2023-04-15T07:55:47.845Z,19.73
2023-04-15T07:57:01.499Z,19.85
2023-04-15T07:58:18.416Z,19.83
2023-04-15T07:59:33.250Z,20.01
2023-04-15T08:00:46.847Z,19.98
2023-04-15T08:01:56.531Z,20.11
2023-04-15T08:03:02.619Z,19.93
2023-04-15T08:04:21.076Z,19.81
2023-04-15T08:05:29.315Z,19.65
2023-04-15T08:06:40.012Z,19.65
2023-04-15T08:07:50.086Z,19.57
2023-04-15T08:09:04.481Z,19.20
2023-04-15T08:10:22.366Z,19.18
2023-04-15T08:11:34.423Z,19.19
2023-04-15T08:12:54.469Z,19.23
2023-04-15T08:14:01.285Z,19.12
2023-04-15T08:15:26.740Z,19.10
2023-04-15T08:16:30.724Z,19.27
2023-04-15T08:17:36.759Z,19.36
2023-04-15T08:18:50.791Z,19.36
2023-04-15T08:20:14.225Z,19.43
2023-04-15T08:21:23.197Z,19.42
2023-04-15T08:22:38.954Z,19.43
2023-04-15T08:23:46.621Z,19.18
2023-04-15T08:24:56.310Z,19.08
2023-04-15T08:26:03.385Z,19.06
2023-04-15T08:27:26.275Z,19.06
2023-04-15T08:28:32.270Z,18.94
2023-04-15T08:29:40.563Z,18.85
2023-04-15T08:30:50.969Z,18.91
2023-04-15T08:32:12.698Z,18.91
2023-04-15T08:33:21.193Z,18.98
2023-04-15T08:34:34.115Z,19.09
2023-04-15T08:35:41.145Z,18.91
2023-04-15T08:36:59.212Z,18.96
2023-04-15T08:38:21.230Z,19.11
2023-04-15T08:39:34.067Z,19.19
2023-04-15T08:40:48.524Z,19.15
2023-04-15T08:42:09.594Z,19.38
2023-04-15T08:43:38.152Z,19.50
2023-04-15T08:44:47.450Z,19.55
2023-04-15T08:46:13.355Z,19.82
2023-04-15T08:47:24.343Z,20.05
2023-04-15T08:48:37.861Z,20.48
2023-04-15T08:49:54.384Z,20.61
2023-04-15T08:51:01.481Z,20.73
2023-04-15T08:52:07.938Z,20.64
2023-04-15T08:53:13.280Z,20.77
2023-04-15T08:54:18.810Z,20.75
2023-04-15T08:55:23.393Z,20.74
2023-04-15T08:56:28.722Z,20.72
2023-04-15T08:57:33.811Z,20.74
2023-04-15T08:58:38.710Z,20.95
2023-04-15T08:59:45.792Z,21.03
2023-04-15T09:00:50.011Z,21.15
2023-04-15T09:01:58.297Z,21.21
2023-04-15T09:03:08.459Z,21.24
2023-04-15T09:04:12.843Z,21.14
2023-04-15T09:05:23.469Z,21.07
2023-04-15T09:06:28.343Z,20.99
2023-04-15T09:07:36.728Z,20.76
2023-04-15T09:08:48.014Z,20.81
2023-04-15T09:09:56.021Z,20.81
2023-04-15T09:11:01.371Z,20.71
2023-04-15T09:12:18.338Z,20.59
2023-04-15T09:13:32.207Z,20.43
2023-04-15T09:14:41.496Z,20.54
2023-04-15T09:15:49.580Z,20.62
2023-04-15T09:17:05.219Z,20.47
2023-04-15T09:18:29.691Z,20.59
2023-04-15T09:19:44.162Z,20.86
2023-04-15T09:20:48.430Z,21.11
2023-04-15T09:22:01.044Z,21.29
2023-04-15T09:23:20.250Z,21.38
2023-04-15T09:24:29.260Z,21.54
2023-04-15T09:25:35.501Z,21.53
2023-04-15T09:26:43.767Z,21.69
2023-04-15T09:28:08.993Z,21.75
2023-04-15T09:29:29.074Z,21.93
2023-04-15T09:30:44.579Z,21.74
2023-04-15T09:31:52.663Z,21.73
2023-04-15T09:33:11.777Z,21.61
2023-04-15T09:34:19.561Z,21.64
2023-04-15T09:35:26.679Z,21.53
2023-04-15T09:37:01.258Z,21.12
2023-04-15T09:38:10.544Z,20.33
2023-04-15T09:39:18.193Z,19.95
2023-04-15T09:40:55.085Z,19.96
2023-04-15T09:42:13.128Z,20.00
2023-04-15T09:43:18.635Z,20.05
2023-04-15T09:44:29.923Z,19.91
2023-04-15T09:46:54.081Z,19.60
2023-04-15T09:48:26.640Z,19.51
2023-04-15T09:49:37.820Z,19.44
2023-04-15T09:50:46.721Z,19.39
2023-04-15T09:52:05.512Z,19.27
2023-04-15T09:53:18.032Z,19.11
2023-04-15T09:54:40.428Z,18.92
2023-04-15T09:56:04.080Z,18.85
2023-04-15T09:57:17.275Z,18.91
2023-04-15T09:58:37.114Z,18.88
2023-04-15T09:59:47.854Z,18.66
2023-04-15T10:01:03.350Z,18.69
2023-04-15T10:02:17.376Z,18.62
2023-04-15T10:03:35.058Z,18.58
2023-04-15T10:04:55.015Z,18.62
2023-04-15T10:06:16.502Z,18.54
2023-04-15T10:07:27.503Z,18.58
2023-04-15T10:08:35.031Z,18.55
2023-04-15T10:09:44.689Z,18.54
2023-04-15T10:10:53.213Z,18.51
2023-04-15T10:12:00.349Z,18.38
2023-04-15T10:13:25.702Z,18.39
2023-04-15T10:14:41.602Z,18.43
2023-04-15T10:16:27.907Z,18.48
2023-04-15T10:17:41.155Z,18.35
2023-04-15T10:20:27.130Z,18.27
2023-04-15T10:21:35.942Z,18.27
2023-04-15T10:22:42.444Z,18.25
2023-04-15T10:24:00.316Z,18.18
2023-04-15T10:25:15.107Z,18.15
2023-04-15T10:26:30.089Z,18.11
2023-04-15T10:27:49.312Z,18.13
2023-04-15T10:28:59.949Z,18.11
2023-04-15T10:30:10.332Z,18.11
2023-04-15T10:31:21.943Z,18.10
2023-04-15T10:32:31.932Z,18.18
2023-04-15T10:33:52.750Z,18.14
2023-04-15T10:34:58.345Z,18.17
2023-04-15T10:36:18.376Z,18.04
2023-04-15T10:37:37.450Z,18.09
2023-04-15T10:38:47.437Z,18.14
2023-04-15T10:39:58.640Z,18.24
2023-04-15T10:41:32.654Z,18.31
2023-04-15T10:42:37.564Z,18.29
2023-04-15T10:43:56.944Z,18.29
2023-04-15T10:45:20.008Z,18.27
2023-04-15T10:46:40.497Z,18.23
2023-04-15T10:47:53.919Z,18.18
2023-04-15T10:49:13.076Z,18.13
2023-04-15T10:50:21.610Z,18.11
2023-04-15T10:51:32.749Z,18.06
2023-04-15T10:52:42.241Z,17.89
2023-04-15T10:53:48.567Z,17.86
2023-04-15T10:55:25.495Z,17.73
2023-04-15T10:56:41.358Z,17.70
2023-04-15T10:58:01.718Z,17.56
2023-04-15T10:59:13.541Z,17.52
2023-04-15T11:00:32.011Z,17.46
2023-04-15T11:02:02.664Z,17.40
2023-04-15T11:03:48.771Z,17.34
2023-04-15T11:05:17.757Z,17.37
2023-04-15T11:06:45.886Z,17.44
2023-04-15T11:08:02.396Z,17.43
2023-04-15T11:09:35.254Z,17.40
2023-04-15T11:10:53.443Z,17.39
2023-04-15T11:12:26.601Z,17.42
2023-04-15T11:13:55.567Z,17.47
2023-04-15T11:15:31.136Z,17.48
2023-04-15T11:16:45.176Z,17.51
2023-04-15T11:17:52.776Z,17.53
2023-04-15T11:19:21.322Z,17.48
2023-04-15T11:20:27.596Z,17.49
2023-04-15T11:21:38.867Z,17.49
2023-04-15T11:23:08.026Z,17.46
2023-04-15T11:24:37.476Z,17.42
2023-04-15T11:25:49.041Z,17.46
2023-04-15T11:27:00.606Z,17.41
2023-04-15T11:28:21.365Z,17.36
2023-04-15T11:29:35.224Z,17.32
2023-04-15T11:30:43.917Z,17.34
2023-04-15T11:31:51.993Z,17.40
2023-04-15T11:33:16.363Z,17.34
2023-04-15T11:34:25.254Z,17.43
2023-04-15T11:35:37.057Z,17.42
2023-04-15T11:36:44.731Z,17.48
2023-04-15T11:37:57.080Z,17.48
2023-04-15T11:39:14.507Z,17.42
2023-04-15T11:40:31.408Z,17.41
2023-04-15T11:41:37.081Z,17.45
2023-04-15T11:42:49.506Z,17.48
2023-04-15T11:43:53.918Z,17.49
2023-04-15T11:45:16.157Z,17.52
2023-04-15T11:46:23.021Z,17.53
2023-04-15T11:47:27.332Z,17.55
2023-04-15T11:48:37.245Z,17.59
2023-04-15T11:49:41.688Z,17.65
2023-04-15T11:50:46.194Z,17.64
2023-04-15T11:51:50.360Z,17.70
2023-04-15T11:53:13.757Z,17.63
2023-04-15T11:54:20.019Z,17.69
2023-04-15T11:55:25.830Z,17.71
2023-04-15T11:56:30.021Z,17.65
2023-04-15T11:57:39.980Z,17.63
2023-04-15T11:59:03.438Z,17.61
2023-04-15T12:00:17.518Z,17.60
2023-04-15T12:01:21.333Z,17.62
2023-04-15T12:02:37.650Z,17.59
2023-04-15T12:03:52.610Z,17.59
2023-04-15T12:05:16.945Z,17.62
2023-04-15T12:06:36.864Z,17.48
2023-04-15T12:08:00.951Z,17.51
2023-04-15T12:09:17.202Z,17.45
2023-04-15T12:10:34.897Z,17.44
2023-04-15T12:11:54.167Z,17.43
2023-04-15T12:13:04.668Z,17.34
2023-04-15T12:14:34.364Z,17.28
2023-04-15T12:15:52.705Z,17.22
2023-04-15T12:17:26.683Z,17.23
2023-04-15T12:18:40.312Z,17.17
2023-04-15T12:21:38.317Z,17.24
2023-04-15T12:22:43.043Z,17.26
2023-04-15T12:23:57.523Z,17.29
2023-04-15T12:25:08.894Z,17.30
2023-04-15T12:26:32.561Z,17.34
2023-04-15T12:27:39.663Z,17.36
2023-04-15T12:28:53.564Z,17.45
2023-04-15T12:30:16.366Z,17.45
2023-04-15T12:31:24.237Z,17.47
2023-04-15T12:32:35.828Z,17.48
2023-04-15T12:33:41.952Z,17.47
2023-04-15T12:34:56.180Z,17.58
2023-04-15T12:36:25.326Z,17.62
2023-04-15T12:37:29.734Z,17.69
2023-04-15T12:38:39.711Z,17.70
2023-04-15T12:39:50.175Z,17.73
2023-04-15T12:40:56.205Z,17.77
2023-04-15T12:42:17.410Z,17.77
2023-04-15T12:43:24.897Z,17.72
2023-04-15T12:44:35.454Z,17.72
2023-04-15T12:45:42.894Z,17.73
2023-04-15T12:46:46.988Z,17.72
2023-04-15T12:48:00.270Z,17.69
2023-04-15T12:49:20.195Z,17.63
2023-04-15T12:50:29.372Z,17.56
2023-04-15T12:51:33.676Z,17.52
2023-04-15T12:52:37.274Z,17.55
2023-04-15T12:53:41.166Z,17.53
2023-04-15T12:54:44.726Z,17.52
2023-04-15T12:55:48.579Z,17.51
2023-04-15T12:56:52.449Z,17.52
2023-04-15T12:57:56.116Z,17.49
2023-04-15T12:58:59.936Z,17.52
2023-04-15T13:00:08.286Z,17.53
2023-04-15T13:01:15.516Z,17.51
2023-04-15T13:02:21.354Z,17.52
2023-04-15T13:03:25.165Z,17.57
2023-04-15T13:04:31.590Z,17.49
2023-04-15T13:05:49.268Z,17.44
2023-04-15T13:06:56.478Z,17.48
2023-04-15T13:08:15.340Z,17.48
2023-04-15T13:09:19.779Z,17.51
2023-04-15T13:10:26.663Z,17.42
2023-04-15T13:11:33.961Z,17.44
2023-04-15T13:12:39.212Z,17.45
2023-04-15T13:13:44.271Z,17.40
2023-04-15T13:14:52.999Z,17.32
2023-04-15T13:16:00.068Z,17.34
2023-04-15T13:17:17.991Z,17.31
2023-04-15T13:18:35.353Z,17.26
2023-04-15T13:19:39.806Z,17.22
2023-04-15T13:20:48.162Z,17.22
2023-04-15T13:21:53.466Z,17.18
2023-04-15T13:23:02.113Z,17.18
2023-04-15T13:24:21.027Z,17.23
2023-04-15T13:25:27.444Z,17.21
2023-04-15T13:26:38.844Z,17.22
2023-04-15T13:27:50.060Z,17.24
2023-04-15T13:28:56.826Z,17.25
2023-04-15T13:30:23.652Z,17.28
2023-04-15T13:31:32.750Z,17.26
2023-04-15T13:32:44.002Z,17.27
2023-04-15T13:33:49.541Z,17.25
2023-04-15T13:34:54.856Z,17.30
2023-04-15T13:36:17.545Z,17.27
2023-04-15T13:37:30.972Z,17.22
2023-04-15T13:38:42.540Z,17.13
2023-04-15T13:39:59.530Z,17.06
2023-04-15T13:41:21.558Z,17.05
2023-04-15T13:42:28.199Z,17.09
2023-04-15T13:43:35.057Z,17.05
2023-04-15T13:44:41.051Z,17.06
2023-04-15T13:45:49.849Z,17.03
2023-04-15T13:46:57.108Z,17.02
2023-04-15T13:48:02.582Z,17.03
2023-04-15T13:49:23.306Z,17.07
2023-04-15T13:50:32.892Z,17.09
2023-04-15T13:51:41.227Z,17.14
2023-04-15T13:52:45.300Z,17.08
2023-04-15T13:53:51.703Z,17.11
2023-04-15T13:55:07.198Z,17.14
2023-04-15T13:56:34.611Z,17.18
2023-04-15T13:57:45.884Z,17.16
2023-04-15T13:59:18.590Z,17.07
2023-04-15T14:00:31.194Z,17.02
2023-04-15T14:01:38.381Z,17.02
2023-04-15T14:02:42.706Z,17.03
2023-04-15T14:04:01.857Z,17.05
2023-04-15T14:05:12.485Z,16.96
2023-04-15T14:06:32.044Z,16.95
2023-04-15T14:07:42.368Z,16.96
2023-04-15T14:08:49.431Z,16.93
2023-04-15T14:09:57.095Z,16.94
2023-04-15T14:11:11.849Z,16.97
2023-04-15T14:13:57.070Z,17.17
2023-04-15T14:15:10.588Z,17.25
2023-04-15T14:16:21.185Z,17.28
2023-04-15T14:17:28.399Z,17.37
2023-04-15T14:19:12.552Z,17.43
2023-04-15T14:20:20.794Z,17.44
2023-04-15T14:21:29.947Z,17.48
2023-04-15T14:22:41.949Z,17.55
2023-04-15T14:23:54.807Z,17.57
2023-04-15T14:25:02.124Z,17.57
2023-04-15T14:26:26.467Z,17.52
2023-04-15T14:27:30.939Z,17.50
2023-04-15T14:28:36.340Z,17.56
2023-04-15T14:29:40.881Z,17.59
2023-04-15T14:30:47.627Z,17.58
2023-04-15T14:32:04.310Z,17.55
2023-04-15T14:33:20.860Z,17.55
2023-04-15T14:34:30.199Z,17.60
2023-04-15T14:36:49.566Z,17.64
2023-04-15T14:37:46.288Z,17.65
2023-04-15T14:38:50.117Z,17.60
2023-04-15T14:40:00.728Z,17.67
2023-04-15T14:41:12.617Z,17.75
2023-04-15T14:42:29.281Z,17.76
2023-04-15T14:43:39.948Z,17.71
2023-04-15T14:44:44.945Z,17.70
2023-04-15T14:45:58.879Z,17.57
2023-04-15T14:47:03.795Z,17.49
2023-04-15T14:48:15.120Z,17.44
2023-04-15T14:49:30.858Z,17.39
2023-04-15T14:50:41.066Z,17.38
2023-04-15T14:51:44.886Z,17.44
2023-04-15T14:52:51.775Z,17.45
2023-04-15T14:53:56.017Z,17.40
2023-04-15T14:55:00.005Z,17.39
2023-04-15T14:56:03.812Z,17.37
2023-04-15T14:57:09.448Z,17.37
2023-04-15T14:58:13.126Z,17.35
2023-04-15T14:59:16.875Z,17.31
2023-04-15T15:00:20.723Z,17.20
2023-04-15T15:01:25.218Z,17.11
2023-04-15T15:02:38.210Z,17.03
2023-04-15T15:03:43.825Z,17.01
2023-04-15T15:04:47.516Z,16.92
2023-04-15T15:06:03.154Z,16.94
2023-04-15T15:07:13.961Z,16.93
2023-04-15T15:08:17.802Z,16.87
2023-04-15T15:09:25.603Z,16.80
2023-04-15T15:10:32.644Z,16.78
2023-04-15T15:11:54.059Z,16.78
2023-04-15T15:13:02.393Z,16.76
2023-04-15T15:14:26.406Z,16.77
2023-04-15T15:15:42.110Z,16.75
2023-04-15T15:16:46.655Z,16.76
2023-04-15T15:17:59.889Z,16.76
2023-04-15T15:19:17.115Z,16.76
2023-04-15T15:20:25.600Z,16.75
2023-04-15T15:21:38.445Z,16.74
2023-04-15T15:22:42.649Z,16.74
2023-04-15T15:23:52.993Z,16.77
2023-04-15T15:25:07.519Z,16.81
2023-04-15T15:26:30.716Z,16.77
2023-04-15T15:27:38.259Z,16.71
2023-04-15T15:28:48.105Z,16.69
2023-04-15T15:30:03.745Z,16.62
2023-04-15T15:31:13.310Z,16.57
2023-04-15T15:32:23.015Z,16.56
2023-04-15T15:33:33.132Z,16.60
2023-04-15T15:34:50.289Z,16.58
2023-04-15T15:36:03.041Z,16.58
2023-04-15T15:37:12.326Z,16.54
2023-04-15T15:38:29.672Z,16.50
2023-04-15T15:39:39.245Z,16.54
2023-04-15T15:40:46.821Z,16.57
2023-04-15T15:42:03.318Z,16.57
2023-04-15T15:43:14.111Z,16.57
2023-04-15T15:44:20.750Z,16.59
2023-04-15T15:45:33.278Z,16.52
2023-04-15T15:46:40.501Z,16.58
2023-04-15T15:47:44.600Z,16.53